createdAt,value
2019-05-02T00:00:50.017Z,9.60
2019-05-02T00:03:20.392Z,9.60
2019-05-02T00:05:49.321Z,9.60
2019-05-02T00:08:18.159Z,9.60
2019-05-02T00:10:47.373Z,9.60
2019-05-02T00:13:16.162Z,9.50
2019-05-02T00:15:44.890Z,9.40
2019-05-02T00:18:13.719Z,9.40
2019-05-02T00:20:42.452Z,9.30
2019-05-02T00:23:11.183Z,9.20
2019-05-02T00:25:39.912Z,9.10
2019-05-02T00:28:12.504Z,8.90
2019-05-02T00:30:39.022Z,8.80
2019-05-02T00:33:10.377Z,8.70
2019-05-02T00:35:40.989Z,8.60
2019-05-02T00:38:08.503Z,8.50
2019-05-02T00:40:37.235Z,8.50
2019-05-02T00:43:06.036Z,8.40
2019-05-02T00:45:34.769Z,8.40
2019-05-02T00:48:08.117Z,8.40
2019-05-02T00:50:45.288Z,8.30
2019-05-02T00:53:12.137Z,8.30
2019-05-02T00:55:41.635Z,8.20
2019-05-02T00:58:10.361Z,8.20
2019-05-02T01:00:56.723Z,8.20
2019-05-02T01:03:27.090Z,8.20
2019-05-02T01:05:55.754Z,8.20
2019-05-02T01:08:24.491Z,8.20
2019-05-02T01:10:56.825Z,8.20
2019-05-02T01:13:23.523Z,8.20
2019-05-02T01:15:52.269Z,8.20
2019-05-02T01:18:22.637Z,8.20
2019-05-02T01:20:51.366Z,8.20
2019-05-02T01:23:22.965Z,8.20
2019-05-02T01:25:52.891Z,8.20
2019-05-02T01:28:28.630Z,8.10
2019-05-02T01:31:04.677Z,8.20
2019-05-02T01:33:43.795Z,8.20
2019-05-02T01:36:22.505Z,8.20
2019-05-02T01:38:51.309Z,8.10
2019-05-02T01:41:23.942Z,8.00
2019-05-02T01:43:50.339Z,8.00
2019-05-02T01:46:22.368Z,7.90
2019-05-02T01:48:49.388Z,7.90
2019-05-02T01:51:18.043Z,7.90
2019-05-02T01:53:46.779Z,7.90
2019-05-02T01:56:15.437Z,7.90
2019-05-02T01:58:44.171Z,7.90
2019-05-02T02:01:16.266Z,7.90
2019-05-02T02:03:45.614Z,7.90
2019-05-02T02:06:14.214Z,7.90
2019-05-02T02:08:42.941Z,7.90
2019-05-02T02:11:11.680Z,7.90
2019-05-02T02:13:40.410Z,7.90
2019-05-02T02:16:09.148Z,8.00
2019-05-02T02:18:51.493Z,8.10
2019-05-02T02:21:25.693Z,8.10
2019-05-02T02:24:05.586Z,8.10
2019-05-02T02:26:34.311Z,8.00
2019-05-02T02:29:07.339Z,8.10
2019-05-02T02:31:39.654Z,8.10
2019-05-02T02:34:03.903Z,8.10
2019-05-02T02:36:34.721Z,8.10
2019-05-02T02:39:07.027Z,8.10
2019-05-02T02:41:33.228Z,8.10
2019-05-02T02:44:09.764Z,8.10
2019-05-02T02:46:43.125Z,8.10
2019-05-02T02:49:14.200Z,8.10
2019-05-02T02:51:42.240Z,8.10
2019-05-02T02:54:10.970Z,8.20
2019-05-02T02:56:40.752Z,8.20
2019-05-02T02:59:09.636Z,8.20
2019-05-02T03:01:38.370Z,8.20
2019-05-02T03:04:12.234Z,8.30
2019-05-02T03:06:38.411Z,8.30
2019-05-02T03:09:07.864Z,8.30
2019-05-02T03:11:40.909Z,8.40
2019-05-02T03:14:19.771Z,8.40
2019-05-02T03:16:49.539Z,8.40
2019-05-02T03:19:21.122Z,8.40
2019-05-02T03:22:01.091Z,8.50
2019-05-02T03:24:26.033Z,8.50
2019-05-02T03:26:55.857Z,8.60
2019-05-02T03:29:25.235Z,8.60
2019-05-02T03:32:11.608Z,8.70
2019-05-02T03:34:24.340Z,8.80
2019-05-02T03:36:53.007Z,8.80
2019-05-02T03:39:22.435Z,8.80
2019-05-02T03:41:55.783Z,8.90
2019-05-02T03:44:25.812Z,9.00
2019-05-02T03:46:54.188Z,9.10
2019-05-02T03:49:22.600Z,9.10
2019-05-02T03:51:56.157Z,9.10
2019-05-02T03:54:21.710Z,9.20
2019-05-02T03:56:51.072Z,9.30
2019-05-02T03:59:20.476Z,9.30
2019-05-02T04:01:49.214Z,9.30
2019-05-02T04:04:20.819Z,9.40
2019-05-02T04:06:48.422Z,9.40
2019-05-02T04:09:32.112Z,9.40
2019-05-02T04:11:59.358Z,9.40
2019-05-02T04:14:37.435Z,9.50
2019-05-02T04:16:59.758Z,9.50
2019-05-02T04:19:34.691Z,9.50
2019-05-02T04:22:01.508Z,9.50
2019-05-02T04:24:30.645Z,9.60
2019-05-02T04:26:59.650Z,9.50
2019-05-02T04:29:31.361Z,9.60
2019-05-02T04:32:04.279Z,9.60
2019-05-02T04:34:28.997Z,9.60
2019-05-02T04:37:01.305Z,9.60
2019-05-02T04:39:28.624Z,9.60
2019-05-02T04:41:58.639Z,9.60
2019-05-02T04:44:32.223Z,9.60
2019-05-02T04:47:02.581Z,9.60
2019-05-02T04:49:33.773Z,9.70
2019-05-02T04:52:06.026Z,9.70
2019-05-02T04:54:32.406Z,9.70
2019-05-02T04:57:02.456Z,9.70
2019-05-02T04:59:32.918Z,9.80
2019-05-02T05:02:01.544Z,9.70
2019-05-02T05:04:33.117Z,9.80
2019-05-02T05:07:01.420Z,9.80
2019-05-02T05:09:30.283Z,9.90
2019-05-02T05:12:02.393Z,9.90
2019-05-02T05:14:31.448Z,9.90
2019-05-02T05:16:59.645Z,10.00
2019-05-02T05:19:32.576Z,10.00
2019-05-02T05:22:04.558Z,10.00
2019-05-02T05:24:38.470Z,10.00
2019-05-02T05:27:03.646Z,10.00
2019-05-02T05:29:32.308Z,10.10
2019-05-02T05:32:07.850Z,10.10
2019-05-02T05:34:32.760Z,10.10
2019-05-02T05:37:03.548Z,10.20
2019-05-02T05:39:32.360Z,10.20
2019-05-02T05:42:01.070Z,10.20
2019-05-02T05:44:32.587Z,10.20
2019-05-02T05:47:00.122Z,10.30
2019-05-02T05:49:28.862Z,10.30
2019-05-02T05:52:02.568Z,10.20
2019-05-02T05:54:28.465Z,10.30
2019-05-02T05:56:57.412Z,10.40
2019-05-02T05:59:28.011Z,10.50
2019-05-02T06:01:57.909Z,10.70
2019-05-02T06:04:32.723Z,10.70
2019-05-02T06:06:59.516Z,10.80
2019-05-02T06:09:31.162Z,10.80
2019-05-02T06:11:57.745Z,10.90
2019-05-02T06:14:26.514Z,10.90
2019-05-02T06:16:55.190Z,10.90
2019-05-02T06:19:23.858Z,10.90
2019-05-02T06:21:52.604Z,10.90
2019-05-02T06:24:21.337Z,10.90
2019-05-02T06:26:51.751Z,10.90
2019-05-02T06:29:21.029Z,10.90
2019-05-02T06:31:49.846Z,11.10
2019-05-02T06:34:18.578Z,11.30
2019-05-02T06:36:47.242Z,11.60
2019-05-02T06:39:15.979Z,11.80
2019-05-02T06:41:44.644Z,12.00
2019-05-02T06:44:13.382Z,12.00
2019-05-02T06:46:42.123Z,12.00
2019-05-02T06:49:10.933Z,11.90
2019-05-02T06:51:39.602Z,11.70
2019-05-02T06:54:08.409Z,11.70
2019-05-02T06:56:37.133Z,11.70
2019-05-02T06:59:05.875Z,11.60
2019-05-02T07:01:34.776Z,11.60
2019-05-02T07:04:04.337Z,11.50
2019-05-02T07:06:42.158Z,11.50
2019-05-02T07:09:04.913Z,11.40
2019-05-02T07:11:38.774Z,11.40
2019-05-02T07:14:12.913Z,11.40
2019-05-02T07:16:38.755Z,11.30
2019-05-02T07:19:08.050Z,11.30
2019-05-02T07:21:36.780Z,11.30
2019-05-02T07:24:05.511Z,11.40
2019-05-02T07:26:34.186Z,11.20
2019-05-02T07:29:02.933Z,11.20
2019-05-02T07:31:31.661Z,11.10
2019-05-02T07:34:00.402Z,11.10
2019-05-02T07:36:31.196Z,11.00
2019-05-02T07:39:05.217Z,11.00
2019-05-02T07:41:30.311Z,10.90
2019-05-02T07:43:59.005Z,10.90
2019-05-02T07:46:27.743Z,10.90
2019-05-02T07:48:56.707Z,10.90
2019-05-02T07:51:25.414Z,10.90
2019-05-02T07:53:55.729Z,10.90
2019-05-02T07:56:24.615Z,10.90
2019-05-02T07:58:53.946Z,10.90
2019-05-02T08:01:22.688Z,10.90
2019-05-02T08:03:51.414Z,10.90
2019-05-02T08:06:20.153Z,10.90
2019-05-02T08:08:48.814Z,10.90
2019-05-02T08:11:17.574Z,11.00
2019-05-02T08:13:49.652Z,11.00
2019-05-02T08:16:16.687Z,11.00
2019-05-02T08:18:45.487Z,10.90
2019-05-02T08:21:14.221Z,10.90
2019-05-02T08:23:42.890Z,10.90
2019-05-02T08:26:11.622Z,10.90
2019-05-02T08:28:52.052Z,10.90
2019-05-02T08:31:18.968Z,10.90
2019-05-02T08:33:48.390Z,10.90
2019-05-02T08:36:17.041Z,10.90
2019-05-02T08:38:48.818Z,11.00
2019-05-02T08:41:20.037Z,11.10
2019-05-02T08:43:46.575Z,11.00
2019-05-02T08:46:15.956Z,11.10
2019-05-02T08:48:44.866Z,11.10
2019-05-02T08:51:13.594Z,11.20
2019-05-02T08:53:42.330Z,11.20
2019-05-02T08:56:11.066Z,11.10
2019-05-02T08:58:39.734Z,11.20
2019-05-02T09:01:09.200Z,11.20
2019-05-02T09:03:54.690Z,11.30
2019-05-02T09:06:09.222Z,11.20
2019-05-02T09:08:37.892Z,11.30
2019-05-02T09:11:06.617Z,11.40
2019-05-02T09:13:35.345Z,11.50
2019-05-02T09:16:05.977Z,11.40
2019-05-02T09:18:40.594Z,11.40
2019-05-02T09:21:04.963Z,11.30
2019-05-02T09:23:37.063Z,11.40
2019-05-02T09:26:03.986Z,11.40
2019-05-02T09:28:32.738Z,11.20
2019-05-02T09:31:02.871Z,11.20
2019-05-02T09:33:32.249Z,11.20
2019-05-02T09:36:02.386Z,11.10
2019-05-02T09:38:32.897Z,11.10
2019-05-02T09:41:15.399Z,11.00
2019-05-02T09:43:34.872Z,11.00
2019-05-02T09:46:02.613Z,11.20
2019-05-02T09:48:31.922Z,11.20
2019-05-02T09:51:04.501Z,11.20
2019-05-02T09:53:32.384Z,11.30
2019-05-02T09:56:02.221Z,11.30
2019-05-02T09:58:32.069Z,11.20
2019-05-02T10:01:02.485Z,11.20
2019-05-02T10:03:31.942Z,11.10
2019-05-02T10:06:02.920Z,11.10
2019-05-02T10:08:32.142Z,11.10
2019-05-02T10:11:02.828Z,11.00
2019-05-02T10:13:32.940Z,10.90
2019-05-02T10:16:02.144Z,10.80
2019-05-02T10:18:32.910Z,10.80
2019-05-02T10:21:03.033Z,10.80
2019-05-02T10:23:32.185Z,10.90
2019-05-02T10:26:02.796Z,10.90
2019-05-02T10:28:31.801Z,11.00
2019-05-02T10:31:02.287Z,11.00
2019-05-02T10:33:33.797Z,11.00
2019-05-02T10:36:02.662Z,11.00
2019-05-02T10:38:32.575Z,11.00
2019-05-02T10:41:03.442Z,11.00
2019-05-02T10:43:32.895Z,10.90
2019-05-02T10:46:03.438Z,11.00
2019-05-02T10:48:33.543Z,11.10
2019-05-02T10:51:06.857Z,11.20
2019-05-02T10:53:35.592Z,11.30
2019-05-02T10:56:04.326Z,11.20
2019-05-02T10:58:35.689Z,11.20
2019-05-02T11:01:04.308Z,11.20
2019-05-02T11:03:37.968Z,11.20
2019-05-02T11:06:07.662Z,11.30
2019-05-02T11:08:36.889Z,11.20
2019-05-02T11:11:06.390Z,11.40
2019-05-02T11:13:53.322Z,11.40
2019-05-02T11:16:23.878Z,11.40
2019-05-02T11:18:59.714Z,11.40
2019-05-02T11:21:28.553Z,11.30
2019-05-02T11:23:57.350Z,11.30
2019-05-02T11:26:26.267Z,11.20
2019-05-02T11:28:55.029Z,11.10
2019-05-02T11:31:24.055Z,11.20
2019-05-02T11:33:52.928Z,11.20
2019-05-02T11:36:22.407Z,11.20
2019-05-02T11:39:00.387Z,11.20
2019-05-02T11:41:22.431Z,11.20
2019-05-02T11:43:54.168Z,11.20
2019-05-02T11:46:22.131Z,11.30
2019-05-02T11:48:56.349Z,11.30
2019-05-02T11:51:22.723Z,11.30
2019-05-02T11:53:52.738Z,11.30
2019-05-02T11:56:22.246Z,11.20
2019-05-02T11:58:52.848Z,11.20
2019-05-02T12:01:34.733Z,11.10
2019-05-02T12:03:52.679Z,11.00
2019-05-02T12:06:22.549Z,10.90
2019-05-02T12:08:52.532Z,10.90
2019-05-02T12:11:22.949Z,10.90
2019-05-02T12:13:56.646Z,10.90
2019-05-02T12:16:22.884Z,10.90
2019-05-02T12:18:53.693Z,10.80
2019-05-02T12:21:22.945Z,10.70
2019-05-02T12:23:52.728Z,10.60
2019-05-02T12:26:22.182Z,10.50
2019-05-02T12:28:52.721Z,10.50
2019-05-02T12:31:26.641Z,10.50
2019-05-02T12:33:56.244Z,10.60
2019-05-02T12:36:24.977Z,10.50
2019-05-02T12:38:53.697Z,10.50
2019-05-02T12:41:25.091Z,10.60
2019-05-02T12:43:52.738Z,10.60
2019-05-02T12:46:22.143Z,10.60
2019-05-02T12:48:52.037Z,10.60
2019-05-02T12:51:22.600Z,10.60
2019-05-02T12:53:52.895Z,10.60
2019-05-02T12:56:22.870Z,10.50
2019-05-02T12:58:52.946Z,10.50
2019-05-02T13:01:22.102Z,10.40
2019-05-02T13:04:07.332Z,10.30
2019-05-02T13:06:37.201Z,10.30
2019-05-02T13:09:08.790Z,10.40
2019-05-02T13:11:42.289Z,10.40
2019-05-02T13:14:18.372Z,10.40
2019-05-02T13:16:40.041Z,10.40
2019-05-02T13:19:08.707Z,10.40
2019-05-02T13:21:49.799Z,10.50
2019-05-02T13:24:32.579Z,10.60
2019-05-02T13:27:04.053Z,10.70
2019-05-02T13:29:32.257Z,10.80
2019-05-02T13:32:21.753Z,10.80
2019-05-02T13:35:08.327Z,10.80
2019-05-02T13:37:37.227Z,10.90
2019-05-02T13:40:26.470Z,11.00
2019-05-02T13:42:55.222Z,10.90
2019-05-02T13:45:34.682Z,10.90
2019-05-02T13:48:03.412Z,11.00
2019-05-02T13:50:32.275Z,10.80
2019-05-02T13:53:02.671Z,10.70
2019-05-02T13:55:35.851Z,10.70
2019-05-02T13:58:04.581Z,10.60
2019-05-02T14:00:42.444Z,10.40
2019-05-02T14:03:11.896Z,10.30
2019-05-02T14:05:49.313Z,10.30
2019-05-02T14:08:27.648Z,10.40
2019-05-02T14:10:58.172Z,10.50
2019-05-02T14:13:26.893Z,10.50
2019-05-02T14:15:55.617Z,10.50
2019-05-02T14:18:28.940Z,10.60
2019-05-02T14:20:54.758Z,10.60
2019-05-02T14:23:23.430Z,10.70
2019-05-02T14:25:52.226Z,10.80
2019-05-02T14:28:22.386Z,10.80
2019-05-02T14:30:52.493Z,10.80
2019-05-02T14:33:23.369Z,10.70
2019-05-02T14:35:52.699Z,10.70
2019-05-02T14:38:22.088Z,10.70
2019-05-02T14:41:03.152Z,10.70
2019-05-02T14:43:44.575Z,10.70
2019-05-02T14:46:09.512Z,10.80
2019-05-02T14:48:45.137Z,10.80
2019-05-02T14:51:16.801Z,10.70
2019-05-02T14:53:43.112Z,10.70
2019-05-02T14:56:22.756Z,10.70
2019-05-02T14:58:52.845Z,10.70
2019-05-02T15:01:25.839Z,10.60
2019-05-02T15:03:52.954Z,10.40
2019-05-02T15:06:23.680Z,10.30
2019-05-02T15:08:52.599Z,10.20
2019-05-02T15:11:30.459Z,9.90
2019-05-02T15:13:52.468Z,9.60
2019-05-02T15:16:24.939Z,9.50
2019-05-02T15:18:53.313Z,9.40
2019-05-02T15:21:22.897Z,9.40
2019-05-02T15:23:54.430Z,9.30
2019-05-02T15:26:26.329Z,9.40
2019-05-02T15:28:52.486Z,9.40
2019-05-02T15:31:34.944Z,9.40
2019-05-02T15:34:22.704Z,9.40
2019-05-02T15:36:52.697Z,9.40
2019-05-02T15:41:52.371Z,9.40
2019-05-02T15:44:23.376Z,9.40
2019-05-02T15:46:52.424Z,9.40
2019-05-02T15:49:22.226Z,9.40
2019-05-02T15:51:52.354Z,9.40
2019-05-02T15:54:22.701Z,9.40
2019-05-02T15:57:00.508Z,9.40
2019-05-02T15:59:41.686Z,9.30
2019-05-02T16:02:07.415Z,9.40
2019-05-02T16:04:37.784Z,9.40
2019-05-02T16:07:08.329Z,9.40
2019-05-02T16:09:36.975Z,9.30
2019-05-02T16:12:05.999Z,9.30
2019-05-02T16:14:36.127Z,9.30
2019-05-02T16:17:04.952Z,9.30
2019-05-02T16:19:35.310Z,9.20
2019-05-02T16:22:08.340Z,9.20
2019-05-02T16:24:37.134Z,9.20
2019-05-02T16:27:05.858Z,9.20
2019-05-02T16:29:34.582Z,9.20
2019-05-02T16:32:21.976Z,9.20
2019-05-02T16:34:54.811Z,9.20
2019-05-02T16:37:22.858Z,9.30
2019-05-02T16:39:51.593Z,9.30
2019-05-02T16:42:22.300Z,9.30
2019-05-02T16:44:52.209Z,9.30
2019-05-02T16:47:21.947Z,9.30
2019-05-02T16:49:53.146Z,9.20
2019-05-02T16:52:22.156Z,9.20
2019-05-02T16:54:52.697Z,9.30
2019-05-02T16:57:22.171Z,9.20
2019-05-02T16:59:54.024Z,9.10
2019-05-02T17:02:21.900Z,9.10
2019-05-02T17:04:54.194Z,9.10
2019-05-02T17:07:22.666Z,9.00
2019-05-02T17:10:08.531Z,8.90
2019-05-02T17:12:38.510Z,8.70
2019-05-02T17:15:26.303Z,8.60
2019-05-02T17:17:57.354Z,8.50
2019-05-02T17:20:26.046Z,8.50
2019-05-02T17:23:01.807Z,8.40
2019-05-02T17:25:25.140Z,8.40
2019-05-02T17:28:01.161Z,8.30
2019-05-02T17:30:33.705Z,8.30
2019-05-02T17:32:58.194Z,8.30
2019-05-02T17:35:26.953Z,8.30
2019-05-02T17:37:57.102Z,8.30
2019-05-02T17:40:26.142Z,8.30
2019-05-02T17:42:57.290Z,8.40
2019-05-02T17:45:25.475Z,8.40
2019-05-02T17:47:54.315Z,8.40
2019-05-02T17:50:27.821Z,8.40
2019-05-02T17:53:00.970Z,8.40
2019-05-02T17:55:39.843Z,8.30
2019-05-02T17:58:12.499Z,8.30
2019-05-02T18:00:36.850Z,8.30
2019-05-02T18:03:05.569Z,8.30
2019-05-02T18:05:35.800Z,8.20
2019-05-02T18:08:05.991Z,8.20
2019-05-02T18:10:35.801Z,8.10
2019-05-02T18:13:04.926Z,8.00
2019-05-02T18:15:34.701Z,7.90
2019-05-02T18:18:06.734Z,7.80
2019-05-02T18:20:37.104Z,7.60
2019-05-02T18:23:12.081Z,7.40
2019-05-02T18:25:39.047Z,7.20
2019-05-02T18:28:07.762Z,7.00
2019-05-02T18:30:38.227Z,6.70
2019-05-02T18:33:08.423Z,6.70
2019-05-02T18:35:41.950Z,6.60
2019-05-02T18:38:07.821Z,6.60
2019-05-02T18:40:38.816Z,6.60
2019-05-02T18:43:07.554Z,6.50
2019-05-02T18:45:36.353Z,6.50
2019-05-02T18:48:07.093Z,6.50
2019-05-02T18:50:46.972Z,6.50
2019-05-02T18:53:18.565Z,6.40
2019-05-02T18:55:51.703Z,6.40
2019-05-02T18:58:19.229Z,6.40
2019-05-02T19:00:47.924Z,6.30
2019-05-02T19:03:17.256Z,6.30
2019-05-02T19:05:46.730Z,6.30
2019-05-02T19:08:28.171Z,6.20
2019-05-02T19:11:03.987Z,6.20
2019-05-02T19:13:17.648Z,6.20
2019-05-02T19:15:49.278Z,6.20
2019-05-02T19:18:21.611Z,6.20
2019-05-02T19:20:57.386Z,6.20
2019-05-02T19:23:23.770Z,6.20
2019-05-02T19:25:52.929Z,6.10
2019-05-02T19:28:36.741Z,6.10
2019-05-02T19:31:06.748Z,6.10
2019-05-02T19:33:37.470Z,6.10
2019-05-02T19:36:03.764Z,6.10
2019-05-02T19:38:34.791Z,6.10
2019-05-02T19:41:09.325Z,6.10
2019-05-02T19:43:40.259Z,6.10
2019-05-02T19:46:13.305Z,6.10
2019-05-02T19:48:43.963Z,6.10
2019-05-02T19:51:18.408Z,6.00
2019-05-02T19:53:53.431Z,6.00
2019-05-02T19:56:17.525Z,6.00
2019-05-02T19:58:46.911Z,5.90
2019-05-02T20:01:17.453Z,5.90
2019-05-02T20:03:47.842Z,5.90
2019-05-02T20:06:16.707Z,5.80
2019-05-02T20:08:48.804Z,5.90
2019-05-02T20:11:17.619Z,5.80
2019-05-02T20:13:47.823Z,5.80
2019-05-02T20:16:22.447Z,5.80
2019-05-02T20:19:09.366Z,5.70
2019-05-02T20:21:42.981Z,5.70
2019-05-02T20:24:17.543Z,5.70
2019-05-02T20:26:46.746Z,5.60
2019-05-02T20:29:12.919Z,5.70
2019-05-02T20:31:41.642Z,5.70
2019-05-02T20:34:11.777Z,5.70
2019-05-02T20:36:42.460Z,5.70
2019-05-02T20:39:11.908Z,5.60
2019-05-02T20:41:44.585Z,5.60
2019-05-02T20:44:17.933Z,5.50
2019-05-02T20:46:46.685Z,5.50
2019-05-02T20:49:15.553Z,5.50
2019-05-02T20:51:44.310Z,5.50
2019-05-02T20:54:15.113Z,5.40
2019-05-02T20:56:43.751Z,5.40
2019-05-02T20:59:12.841Z,5.30
2019-05-02T21:01:42.876Z,5.30
2019-05-02T21:04:12.162Z,5.30
2019-05-02T21:06:44.088Z,5.20
2019-05-02T21:09:16.412Z,5.20
2019-05-02T21:11:52.552Z,5.10
2019-05-02T21:14:21.700Z,5.00
2019-05-02T21:16:50.479Z,5.00
2019-05-02T21:19:19.301Z,4.90
2019-05-02T21:21:48.288Z,5.00
2019-05-02T21:24:17.012Z,4.90
2019-05-02T21:26:45.716Z,4.90
2019-05-02T21:29:14.479Z,4.80
2019-05-02T21:31:43.581Z,4.80
2019-05-02T21:34:12.372Z,4.80
2019-05-02T21:36:42.687Z,4.80
2019-05-02T21:39:12.612Z,4.80
2019-05-02T21:41:42.712Z,4.70
2019-05-02T21:44:13.168Z,4.70
2019-05-02T21:46:42.855Z,4.70
2019-05-02T21:49:19.241Z,4.60
2019-05-02T21:51:51.642Z,4.60
2019-05-02T21:54:22.677Z,4.60
2019-05-02T21:57:02.701Z,4.60
2019-05-02T21:59:31.924Z,4.50
2019-05-02T22:02:02.492Z,4.50
2019-05-02T22:04:32.020Z,4.50
2019-05-02T22:07:02.015Z,4.40
2019-05-02T22:09:32.384Z,4.40
2019-05-02T22:12:01.927Z,4.40
2019-05-02T22:14:32.629Z,4.40
2019-05-02T22:17:02.255Z,4.30
2019-05-02T22:19:32.447Z,4.40
2019-05-02T22:22:01.733Z,4.30
2019-05-02T22:24:33.364Z,4.30
2019-05-02T22:27:02.088Z,4.30
2019-05-02T22:29:32.429Z,4.20
2019-05-02T22:32:03.032Z,4.30
2019-05-02T22:34:32.718Z,4.30
2019-05-02T22:37:02.231Z,4.30
2019-05-02T22:39:42.009Z,4.30
2019-05-02T22:42:09.903Z,4.30
2019-05-02T22:44:38.615Z,4.20
2019-05-02T22:47:08.833Z,4.30
2019-05-02T22:49:37.460Z,4.20
2019-05-02T22:52:06.172Z,4.30
2019-05-02T22:54:34.876Z,4.30
2019-05-02T22:57:05.208Z,4.30
2019-05-02T22:59:33.966Z,4.30
2019-05-02T23:02:04.006Z,4.30
2019-05-02T23:04:32.892Z,4.30
2019-05-02T23:07:04.843Z,4.30
2019-05-02T23:09:33.556Z,4.30
2019-05-02T23:12:02.936Z,4.30
2019-05-02T23:14:33.737Z,4.30
2019-05-02T23:17:03.231Z,4.20
2019-05-02T23:19:32.139Z,4.20
2019-05-02T23:22:02.454Z,4.20
2019-05-02T23:24:39.335Z,4.20
2019-05-02T23:27:16.392Z,4.20
2019-05-02T23:29:45.099Z,4.20
2019-05-02T23:32:13.813Z,4.20
2019-05-02T23:34:43.584Z,4.20
2019-05-02T23:37:12.414Z,4.20
2019-05-02T23:39:42.080Z,4.20
2019-05-02T23:42:10.946Z,4.10
2019-05-02T23:44:39.704Z,4.10
2019-05-02T23:47:11.747Z,4.10
2019-05-02T23:49:42.695Z,4.10
2019-05-02T23:52:11.798Z,4.10
2019-05-02T23:54:49.941Z,4.10
2019-05-02T23:57:14.453Z,4.00
2019-05-02T23:59:45.111Z,3.90
